sensor_id;sensor_type;location;lat;lon;timestamp;temperature;humidity
79140;HTU21D;68546;59.142;37.948;2023-12-20T00:01:55;4.14;73.34
79140;HTU21D;68546;59.142;37.948;2023-12-20T00:04:21;4.14;73.48
79140;HTU21D;68546;59.142;37.948;2023-12-20T00:06:48;4.16;73.74
79140;HTU21D;68546;59.142;37.948;2023-12-20T00:09:14;4.17;73.86
79140;HTU21D;68546;59.142;37.948;2023-12-20T00:11:41;4.19;73.91
79140;HTU21D;68546;59.142;37.948;2023-12-20T00:14:08;4.21;74.03
79140;HTU21D;68546;59.142;37.948;2023-12-20T00:16:34;4.26;74.13
79140;HTU21D;68546;59.142;37.948;2023-12-20T00:19:01;4.28;74.16
79140;HTU21D;68546;59.142;37.948;2023-12-20T00:21:27;4.32;73.89
79140;HTU21D;68546;59.142;37.948;2023-12-20T00:23:54;4.34;73.80
79140;HTU21D;68546;59.142;37.948;2023-12-20T00:26:20;4.35;73.59
79140;HTU21D;68546;59.142;37.948;2023-12-20T00:28:47;4.35;73.37
79140;HTU21D;68546;59.142;37.948;2023-12-20T00:31:13;4.34;73.20
79140;HTU21D;68546;59.142;37.948;2023-12-20T00:33:40;4.33;73.12
79140;HTU21D;68546;59.142;37.948;2023-12-20T00:36:09;4.32;72.64
79140;HTU21D;68546;59.142;37.948;2023-12-20T00:38:36;4.30;72.53
79140;HTU21D;68546;59.142;37.948;2023-12-20T00:41:02;4.24;72.29
79140;HTU21D;68546;59.142;37.948;2023-12-20T00:43:29;4.21;72.24
79140;HTU21D;68546;59.142;37.948;2023-12-20T00:45:55;4.18;72.08
79140;HTU21D;68546;59.142;37.948;2023-12-20T00:48:22;4.13;72.05
79140;HTU21D;68546;59.142;37.948;2023-12-20T00:50:48;4.08;71.91
79140;HTU21D;68546;59.142;37.948;2023-12-20T00:53:14;4.04;71.92
79140;HTU21D;68546;59.142;37.948;2023-12-20T00:55:41;3.99;71.90
79140;HTU21D;68546;59.142;37.948;2023-12-20T00:58:07;3.95;71.84
79140;HTU21D;68546;59.142;37.948;2023-12-20T01:00:34;3.91;71.92
79140;HTU21D;68546;59.142;37.948;2023-12-20T01:03:00;3.88;71.95
79140;HTU21D;68546;59.142;37.948;2023-12-20T01:05:26;3.85;72.04
79140;HTU21D;68546;59.142;37.948;2023-12-20T01:07:53;3.82;72.13
79140;HTU21D;68546;59.142;37.948;2023-12-20T01:10:19;3.77;72.11
79140;HTU21D;68546;59.142;37.948;2023-12-20T01:12:46;3.75;72.19
79140;HTU21D;68546;59.142;37.948;2023-12-20T01:15:12;3.70;72.23
79140;HTU21D;68546;59.142;37.948;2023-12-20T01:17:39;3.70;72.24
79140;HTU21D;68546;59.142;37.948;2023-12-20T01:20:06;3.67;72.34
79140;HTU21D;68546;59.142;37.948;2023-12-20T01:22:32;3.65;72.32
79140;HTU21D;68546;59.142;37.948;2023-12-20T01:25:01;3.63;72.38
79140;HTU21D;68546;59.142;37.948;2023-12-20T01:27:28;3.60;72.42
79140;HTU21D;68546;59.142;37.948;2023-12-20T01:29:56;3.58;72.47
79140;HTU21D;68546;59.142;37.948;2023-12-20T01:32:22;3.57;72.48
79140;HTU21D;68546;59.142;37.948;2023-12-20T01:34:48;3.55;72.52
79140;HTU21D;68546;59.142;37.948;2023-12-20T01:37:15;3.54;72.56
79140;HTU21D;68546;59.142;37.948;2023-12-20T01:39:41;3.52;72.58
79140;HTU21D;68546;59.142;37.948;2023-12-20T01:42:08;3.49;72.60
79140;HTU21D;68546;59.142;37.948;2023-12-20T01:44:34;3.48;72.64
79140;HTU21D;68546;59.142;37.948;2023-12-20T01:47:01;3.46;72.64
79140;HTU21D;68546;59.142;37.948;2023-12-20T01:49:28;3.45;72.74
79140;HTU21D;68546;59.142;37.948;2023-12-20T01:51:55;3.43;72.83
79140;HTU21D;68546;59.142;37.948;2023-12-20T01:54:22;3.42;72.97
79140;HTU21D;68546;59.142;37.948;2023-12-20T01:56:49;3.44;73.03
79140;HTU21D;68546;59.142;37.948;2023-12-20T01:59:18;3.44;73.18
79140;HTU21D;68546;59.142;37.948;2023-12-20T02:01:45;3.44;73.35
79140;HTU21D;68546;59.142;37.948;2023-12-20T02:04:11;3.45;73.39
79140;HTU21D;68546;59.142;37.948;2023-12-20T02:06:39;3.46;73.45
79140;HTU21D;68546;59.142;37.948;2023-12-20T02:09:07;3.47;73.55
79140;HTU21D;68546;59.142;37.948;2023-12-20T02:11:33;3.50;73.66
79140;HTU21D;68546;59.142;37.948;2023-12-20T02:14:01;3.53;73.73
79140;HTU21D;68546;59.142;37.948;2023-12-20T02:16:28;3.57;73.78
79140;HTU21D;68546;59.142;37.948;2023-12-20T02:18:54;3.60;73.86
79140;HTU21D;68546;59.142;37.948;2023-12-20T02:21:33;3.62;74.01
79140;HTU21D;68546;59.142;37.948;2023-12-20T02:24:03;3.65;73.67
79140;HTU21D;68546;59.142;37.948;2023-12-20T02:26:29;3.65;73.38
79140;HTU21D;68546;59.142;37.948;2023-12-20T02:28:56;3.67;72.81
79140;HTU21D;68546;59.142;37.948;2023-12-20T02:31:23;3.64;72.72
79140;HTU21D;68546;59.142;37.948;2023-12-20T02:33:50;3.63;72.58
79140;HTU21D;68546;59.142;37.948;2023-12-20T02:36:16;3.61;72.32
79140;HTU21D;68546;59.142;37.948;2023-12-20T02:38:43;3.59;72.27
79140;HTU21D;68546;59.142;37.948;2023-12-20T02:41:09;3.59;72.44
79140;HTU21D;68546;59.142;37.948;2023-12-20T02:43:35;3.60;72.76
79140;HTU21D;68546;59.142;37.948;2023-12-20T02:46:02;3.61;72.81
79140;HTU21D;68546;59.142;37.948;2023-12-20T02:48:28;3.62;72.80
79140;HTU21D;68546;59.142;37.948;2023-12-20T02:50:55;3.62;72.42
79140;HTU21D;68546;59.142;37.948;2023-12-20T02:53:21;3.63;72.58
79140;HTU21D;68546;59.142;37.948;2023-12-20T02:55:48;3.63;72.56
79140;HTU21D;68546;59.142;37.948;2023-12-20T02:58:14;3.63;72.48
79140;HTU21D;68546;59.142;37.948;2023-12-20T03:00:40;3.64;72.48
79140;HTU21D;68546;59.142;37.948;2023-12-20T03:03:07;3.64;72.44
79140;HTU21D;68546;59.142;37.948;2023-12-20T03:05:33;3.65;72.37
79140;HTU21D;68546;59.142;37.948;2023-12-20T03:08:00;3.69;72.53
79140;HTU21D;68546;59.142;37.948;2023-12-20T03:10:26;3.69;72.64
79140;HTU21D;68546;59.142;37.948;2023-12-20T03:12:53;3.72;72.73
79140;HTU21D;68546;59.142;37.948;2023-12-20T03:15:19;3.74;72.71
79140;HTU21D;68546;59.142;37.948;2023-12-20T03:17:45;3.76;72.67
79140;HTU21D;68546;59.142;37.948;2023-12-20T03:20:12;3.79;72.50
79140;HTU21D;68546;59.142;37.948;2023-12-20T03:22:38;3.82;72.55
79140;HTU21D;68546;59.142;37.948;2023-12-20T03:25:05;3.83;72.48
79140;HTU21D;68546;59.142;37.948;2023-12-20T03:27:31;3.84;72.29
79140;HTU21D;68546;59.142;37.948;2023-12-20T03:29:58;3.84;72.35
79140;HTU21D;68546;59.142;37.948;2023-12-20T03:32:24;3.86;72.38
79140;HTU21D;68546;59.142;37.948;2023-12-20T03:34:51;3.90;72.51
79140;HTU21D;68546;59.142;37.948;2023-12-20T03:37:17;3.92;72.45
79140;HTU21D;68546;59.142;37.948;2023-12-20T03:39:44;3.93;72.38
79140;HTU21D;68546;59.142;37.948;2023-12-20T03:42:10;3.98;72.34
79140;HTU21D;68546;59.142;37.948;2023-12-20T03:44:39;3.99;72.29
79140;HTU21D;68546;59.142;37.948;2023-12-20T03:47:06;4.02;72.30
79140;HTU21D;68546;59.142;37.948;2023-12-20T03:49:33;4.02;72.16
79140;HTU21D;68546;59.142;37.948;2023-12-20T03:51:59;4.05;72.06
79140;HTU21D;68546;59.142;37.948;2023-12-20T03:54:26;4.05;71.96
79140;HTU21D;68546;59.142;37.948;2023-12-20T03:56:52;4.06;71.71
79140;HTU21D;68546;59.142;37.948;2023-12-20T03:59:18;4.07;71.67
79140;HTU21D;68546;59.142;37.948;2023-12-20T04:01:45;4.08;71.61
79140;HTU21D;68546;59.142;37.948;2023-12-20T04:04:13;4.06;71.36
79140;HTU21D;68546;59.142;37.948;2023-12-20T04:06:40;4.07;71.29
79140;HTU21D;68546;59.142;37.948;2023-12-20T04:09:06;4.05;71.04
79140;HTU21D;68546;59.142;37.948;2023-12-20T04:11:36;4.03;70.83
79140;HTU21D;68546;59.142;37.948;2023-12-20T04:14:02;4.01;70.68
79140;HTU21D;68546;59.142;37.948;2023-12-20T04:16:30;3.99;70.65
79140;HTU21D;68546;59.142;37.948;2023-12-20T04:18:57;3.97;70.66
79140;HTU21D;68546;59.142;37.948;2023-12-20T04:21:23;3.95;70.55
79140;HTU21D;68546;59.142;37.948;2023-12-20T04:23:50;3.95;70.71
79140;HTU21D;68546;59.142;37.948;2023-12-20T04:26:16;3.95;70.83
79140;HTU21D;68546;59.142;37.948;2023-12-20T04:28:43;3.97;70.93
79140;HTU21D;68546;59.142;37.948;2023-12-20T04:31:09;3.98;70.99
79140;HTU21D;68546;59.142;37.948;2023-12-20T04:33:36;4.01;71.00
79140;HTU21D;68546;59.142;37.948;2023-12-20T04:36:02;4.04;71.18
79140;HTU21D;68546;59.142;37.948;2023-12-20T04:38:29;4.06;71.20
79140;HTU21D;68546;59.142;37.948;2023-12-20T04:40:55;4.08;71.14
79140;HTU21D;68546;59.142;37.948;2023-12-20T04:43:22;4.12;71.32
79140;HTU21D;68546;59.142;37.948;2023-12-20T04:45:49;4.16;71.43
79140;HTU21D;68546;59.142;37.948;2023-12-20T04:48:15;4.20;71.40
79140;HTU21D;68546;59.142;37.948;2023-12-20T04:50:41;4.23;71.24
79140;HTU21D;68546;59.142;37.948;2023-12-20T04:53:08;4.26;71.13
79140;HTU21D;68546;59.142;37.948;2023-12-20T04:55:34;4.28;70.90
79140;HTU21D;68546;59.142;37.948;2023-12-20T04:58:01;4.29;70.81
79140;HTU21D;68546;59.142;37.948;2023-12-20T05:00:27;4.32;70.63
79140;HTU21D;68546;59.142;37.948;2023-12-20T05:02:54;4.34;70.58
79140;HTU21D;68546;59.142;37.948;2023-12-20T05:05:21;4.36;70.42
79140;HTU21D;68546;59.142;37.948;2023-12-20T05:07:47;4.36;70.29
79140;HTU21D;68546;59.142;37.948;2023-12-20T05:10:13;4.37;70.23
79140;HTU21D;68546;59.142;37.948;2023-12-20T05:12:40;4.38;70.07
79140;HTU21D;68546;59.142;37.948;2023-12-20T05:15:07;4.39;70.03
79140;HTU21D;68546;59.142;37.948;2023-12-20T05:17:34;4.41;70.02
79140;HTU21D;68546;59.142;37.948;2023-12-20T05:20:01;4.39;69.94
79140;HTU21D;68546;59.142;37.948;2023-12-20T05:22:27;4.42;69.73
79140;HTU21D;68546;59.142;37.948;2023-12-20T05:24:54;4.41;69.64
79140;HTU21D;68546;59.142;37.948;2023-12-20T05:27:20;4.43;69.47
79140;HTU21D;68546;59.142;37.948;2023-12-20T05:29:46;4.39;69.20
79140;HTU21D;68546;59.142;37.948;2023-12-20T05:32:13;4.38;69.07
79140;HTU21D;68546;59.142;37.948;2023-12-20T05:34:39;4.41;69.00
79140;HTU21D;68546;59.142;37.948;2023-12-20T05:37:05;4.39;68.91
79140;HTU21D;68546;59.142;37.948;2023-12-20T05:39:31;4.39;68.82
79140;HTU21D;68546;59.142;37.948;2023-12-20T05:41:58;4.39;68.80
79140;HTU21D;68546;59.142;37.948;2023-12-20T05:44:24;4.37;68.71
79140;HTU21D;68546;59.142;37.948;2023-12-20T05:46:50;4.36;68.36
79140;HTU21D;68546;59.142;37.948;2023-12-20T05:49:16;4.35;68.35
79140;HTU21D;68546;59.142;37.948;2023-12-20T05:51:43;4.34;68.32
79140;HTU21D;68546;59.142;37.948;2023-12-20T05:54:09;4.33;68.27
79140;HTU21D;68546;59.142;37.948;2023-12-20T05:56:35;4.32;68.33
79140;HTU21D;68546;59.142;37.948;2023-12-20T05:59:01;4.31;68.43
79140;HTU21D;68546;59.142;37.948;2023-12-20T06:01:27;4.31;68.46
79140;HTU21D;68546;59.142;37.948;2023-12-20T06:03:54;4.33;68.58
79140;HTU21D;68546;59.142;37.948;2023-12-20T06:06:20;4.37;68.66
79140;HTU21D;68546;59.142;37.948;2023-12-20T06:08:46;4.39;68.81
79140;HTU21D;68546;59.142;37.948;2023-12-20T06:11:13;4.41;68.72
79140;HTU21D;68546;59.142;37.948;2023-12-20T06:13:39;4.44;68.68
79140;HTU21D;68546;59.142;37.948;2023-12-20T06:16:06;4.47;68.72
79140;HTU21D;68546;59.142;37.948;2023-12-20T06:18:33;4.50;68.64
79140;HTU21D;68546;59.142;37.948;2023-12-20T06:20:59;4.51;68.33
79140;HTU21D;68546;59.142;37.948;2023-12-20T06:23:25;4.54;68.10
79140;HTU21D;68546;59.142;37.948;2023-12-20T06:25:53;4.57;68.04
79140;HTU21D;68546;59.142;37.948;2023-12-20T06:28:19;4.57;68.04
79140;HTU21D;68546;59.142;37.948;2023-12-20T06:30:45;4.60;67.97
79140;HTU21D;68546;59.142;37.948;2023-12-20T06:33:15;4.61;67.93
79140;HTU21D;68546;59.142;37.948;2023-12-20T06:35:42;4.62;67.75
79140;HTU21D;68546;59.142;37.948;2023-12-20T06:38:08;4.63;67.73
79140;HTU21D;68546;59.142;37.948;2023-12-20T06:40:35;4.63;67.48
79140;HTU21D;68546;59.142;37.948;2023-12-20T06:43:02;4.63;67.43
79140;HTU21D;68546;59.142;37.948;2023-12-20T06:45:28;4.63;67.31
79140;HTU21D;68546;59.142;37.948;2023-12-20T06:47:57;4.63;67.20
79140;HTU21D;68546;59.142;37.948;2023-12-20T06:50:24;4.63;67.14
79140;HTU21D;68546;59.142;37.948;2023-12-20T06:52:51;4.63;67.10
79140;HTU21D;68546;59.142;37.948;2023-12-20T06:55:18;4.63;66.89
79140;HTU21D;68546;59.142;37.948;2023-12-20T06:57:44;4.63;66.69
79140;HTU21D;68546;59.142;37.948;2023-12-20T07:00:11;4.59;66.33
79140;HTU21D;68546;59.142;37.948;2023-12-20T07:02:38;4.57;66.14
79140;HTU21D;68546;59.142;37.948;2023-12-20T07:05:05;4.53;66.28
79140;HTU21D;68546;59.142;37.948;2023-12-20T07:07:31;4.51;66.26
79140;HTU21D;68546;59.142;37.948;2023-12-20T07:09:58;4.48;66.30
79140;HTU21D;68546;59.142;37.948;2023-12-20T07:12:24;4.47;66.38
79140;HTU21D;68546;59.142;37.948;2023-12-20T07:14:51;4.45;66.36
79140;HTU21D;68546;59.142;37.948;2023-12-20T07:17:17;4.44;66.26
79140;HTU21D;68546;59.142;37.948;2023-12-20T07:19:44;4.39;66.25
79140;HTU21D;68546;59.142;37.948;2023-12-20T07:22:10;4.38;66.24
79140;HTU21D;68546;59.142;37.948;2023-12-20T07:24:37;4.36;66.31
79140;HTU21D;68546;59.142;37.948;2023-12-20T07:27:03;4.37;66.49
79140;HTU21D;68546;59.142;37.948;2023-12-20T07:29:30;4.37;66.30
79140;HTU21D;68546;59.142;37.948;2023-12-20T07:31:57;4.38;66.53
79140;HTU21D;68546;59.142;37.948;2023-12-20T07:34:23;4.39;66.50
79140;HTU21D;68546;59.142;37.948;2023-12-20T07:36:49;4.41;66.65
79140;HTU21D;68546;59.142;37.948;2023-12-20T07:39:16;4.45;66.82
79140;HTU21D;68546;59.142;37.948;2023-12-20T07:41:42;4.47;67.00
79140;HTU21D;68546;59.142;37.948;2023-12-20T07:44:08;4.51;67.05
79140;HTU21D;68546;59.142;37.948;2023-12-20T07:46:35;4.54;66.96
79140;HTU21D;68546;59.142;37.948;2023-12-20T07:49:01;4.58;66.83
79140;HTU21D;68546;59.142;37.948;2023-12-20T07:51:28;4.60;66.81
79140;HTU21D;68546;59.142;37.948;2023-12-20T07:53:54;4.63;66.75
79140;HTU21D;68546;59.142;37.948;2023-12-20T07:56:20;4.66;66.73
79140;HTU21D;68546;59.142;37.948;2023-12-20T07:58:47;4.67;66.67
79140;HTU21D;68546;59.142;37.948;2023-12-20T08:01:15;4.69;66.46
79140;HTU21D;68546;59.142;37.948;2023-12-20T08:03:42;4.71;65.92
79140;HTU21D;68546;59.142;37.948;2023-12-20T08:06:08;4.72;65.99
79140;HTU21D;68546;59.142;37.948;2023-12-20T08:08:34;4.71;65.84
79140;HTU21D;68546;59.142;37.948;2023-12-20T08:11:00;4.69;65.69
79140;HTU21D;68546;59.142;37.948;2023-12-20T08:13:28;4.66;65.53
79140;HTU21D;68546;59.142;37.948;2023-12-20T08:15:55;4.65;65.35
79140;HTU21D;68546;59.142;37.948;2023-12-20T08:18:22;4.61;65.46
79140;HTU21D;68546;59.142;37.948;2023-12-20T08:20:49;4.59;65.40
79140;HTU21D;68546;59.142;37.948;2023-12-20T08:23:15;4.58;65.37
79140;HTU21D;68546;59.142;37.948;2023-12-20T08:25:42;4.57;65.08
79140;HTU21D;68546;59.142;37.948;2023-12-20T08:28:08;4.54;65.05
79140;HTU21D;68546;59.142;37.948;2023-12-20T08:30:34;4.53;65.02
79140;HTU21D;68546;59.142;37.948;2023-12-20T08:33:01;4.50;64.89
79140;HTU21D;68546;59.142;37.948;2023-12-20T08:35:27;4.48;64.98
79140;HTU21D;68546;59.142;37.948;2023-12-20T08:37:53;4.46;65.11
79140;HTU21D;68546;59.142;37.948;2023-12-20T08:40:19;4.44;64.89
79140;HTU21D;68546;59.142;37.948;2023-12-20T08:42:46;4.43;64.51
79140;HTU21D;68546;59.142;37.948;2023-12-20T08:45:12;4.39;64.57
79140;HTU21D;68546;59.142;37.948;2023-12-20T08:47:38;4.38;64.60
79140;HTU21D;68546;59.142;37.948;2023-12-20T08:50:07;4.39;64.63
79140;HTU21D;68546;59.142;37.948;2023-12-20T08:52:33;4.38;64.79
79140;HTU21D;68546;59.142;37.948;2023-12-20T08:54:59;4.38;64.63
79140;HTU21D;68546;59.142;37.948;2023-12-20T08:57:26;4.38;64.63
79140;HTU21D;68546;59.142;37.948;2023-12-20T08:59:52;4.38;64.56
79140;HTU21D;68546;59.142;37.948;2023-12-20T09:02:18;4.38;64.59
79140;HTU21D;68546;59.142;37.948;2023-12-20T09:04:45;4.39;64.52
79140;HTU21D;68546;59.142;37.948;2023-12-20T09:07:25;4.41;64.40
79140;HTU21D;68546;59.142;37.948;2023-12-20T09:09:52;4.38;64.34
79140;HTU21D;68546;59.142;37.948;2023-12-20T09:12:19;4.38;64.24
79140;HTU21D;68546;59.142;37.948;2023-12-20T09:14:46;4.38;64.21
79140;HTU21D;68546;59.142;37.948;2023-12-20T09:17:13;4.37;64.01
79140;HTU21D;68546;59.142;37.948;2023-12-20T09:19:39;4.37;64.11
79140;HTU21D;68546;59.142;37.948;2023-12-20T09:22:06;4.37;64.06
79140;HTU21D;68546;59.142;37.948;2023-12-20T09:24:32;4.36;63.98
79140;HTU21D;68546;59.142;37.948;2023-12-20T09:26:58;4.35;63.97
79140;HTU21D;68546;59.142;37.948;2023-12-20T09:29:25;4.34;63.80
79140;HTU21D;68546;59.142;37.948;2023-12-20T09:31:51;4.36;63.72
79140;HTU21D;68546;59.142;37.948;2023-12-20T09:34:17;4.37;63.85
79140;HTU21D;68546;59.142;37.948;2023-12-20T09:36:44;4.36;63.63
79140;HTU21D;68546;59.142;37.948;2023-12-20T09:39:17;4.36;63.61
79140;HTU21D;68546;59.142;37.948;2023-12-20T09:42:06;4.38;63.60
79140;HTU21D;68546;59.142;37.948;2023-12-20T09:44:33;4.36;63.56
79140;HTU21D;68546;59.142;37.948;2023-12-20T09:47:04;4.36;63.46
79140;HTU21D;68546;59.142;37.948;2023-12-20T09:49:30;4.37;63.59
79140;HTU21D;68546;59.142;37.948;2023-12-20T09:52:00;4.38;63.63
79140;HTU21D;68546;59.142;37.948;2023-12-20T09:54:28;4.43;63.61
79140;HTU21D;68546;59.142;37.948;2023-12-20T09:56:54;4.45;63.66
79140;HTU21D;68546;59.142;37.948;2023-12-20T09:59:21;4.48;63.11
79140;HTU21D;68546;59.142;37.948;2023-12-20T10:01:48;4.53;63.01
79140;HTU21D;68546;59.142;37.948;2023-12-20T10:04:15;4.60;63.27
79140;HTU21D;68546;59.142;37.948;2023-12-20T10:06:42;4.65;63.21
79140;HTU21D;68546;59.142;37.948;2023-12-20T10:09:10;4.71;63.07
79140;HTU21D;68546;59.142;37.948;2023-12-20T10:11:37;4.77;63.18
79140;HTU21D;68546;59.142;37.948;2023-12-20T10:14:08;4.81;62.98
79140;HTU21D;68546;59.142;37.948;2023-12-20T10:16:34;4.88;62.80
79140;HTU21D;68546;59.142;37.948;2023-12-20T10:19:00;4.92;62.58
79140;HTU21D;68546;59.142;37.948;2023-12-20T10:21:27;4.96;62.18
79140;HTU21D;68546;59.142;37.948;2023-12-20T10:23:57;4.98;61.98
79140;HTU21D;68546;59.142;37.948;2023-12-20T10:26:27;5.02;61.76
79140;HTU21D;68546;59.142;37.948;2023-12-20T10:28:56;5.05;61.79
79140;HTU21D;68546;59.142;37.948;2023-12-20T10:31:30;5.06;61.38
79140;HTU21D;68546;59.142;37.948;2023-12-20T10:33:57;5.10;61.56
79140;HTU21D;68546;59.142;37.948;2023-12-20T10:36:26;5.11;60.90
79140;HTU21D;68546;59.142;37.948;2023-12-20T10:38:56;5.11;60.63
79140;HTU21D;68546;59.142;37.948;2023-12-20T10:41:29;5.12;60.69
79140;HTU21D;68546;59.142;37.948;2023-12-20T10:44:05;5.12;60.66
79140;HTU21D;68546;59.142;37.948;2023-12-20T10:46:34;5.11;59.98
79140;HTU21D;68546;59.142;37.948;2023-12-20T10:49:05;5.10;59.86
79140;HTU21D;68546;59.142;37.948;2023-12-20T10:51:31;5.09;60.04
79140;HTU21D;68546;59.142;37.948;2023-12-20T10:54:00;5.08;60.08
79140;HTU21D;68546;59.142;37.948;2023-12-20T10:56:32;5.06;60.08
79140;HTU21D;68546;59.142;37.948;2023-12-20T10:59:01;5.07;60.18
79140;HTU21D;68546;59.142;37.948;2023-12-20T11:01:30;5.04;60.16
79140;HTU21D;68546;59.142;37.948;2023-12-20T11:03:58;5.03;59.58
79140;HTU21D;68546;59.142;37.948;2023-12-20T11:06:46;5.00;59.53
79140;HTU21D;68546;59.142;37.948;2023-12-20T11:14:46;4.96;59.49
79140;HTU21D;68546;59.142;37.948;2023-12-20T11:17:13;4.94;59.67
79140;HTU21D;68546;59.142;37.948;2023-12-20T11:22:26;4.93;59.64
79140;HTU21D;68546;59.142;37.948;2023-12-20T11:24:54;4.92;59.61
79140;HTU21D;68546;59.142;37.948;2023-12-20T11:27:24;4.93;59.33
79140;HTU21D;68546;59.142;37.948;2023-12-20T11:29:58;4.93;59.53
79140;HTU21D;68546;59.142;37.948;2023-12-20T11:35:01;4.94;59.50
79140;HTU21D;68546;59.142;37.948;2023-12-20T11:37:42;4.93;59.56
79140;HTU21D;68546;59.142;37.948;2023-12-20T11:40:12;4.93;59.47
79140;HTU21D;68546;59.142;37.948;2023-12-20T11:42:41;4.94;59.51
79140;HTU21D;68546;59.142;37.948;2023-12-20T11:45:15;4.93;59.42
79140;HTU21D;68546;59.142;37.948;2023-12-20T11:47:46;4.92;59.48
79140;HTU21D;68546;59.142;37.948;2023-12-20T11:50:12;4.92;59.48
79140;HTU21D;68546;59.142;37.948;2023-12-20T11:52:38;4.94;59.32
79140;HTU21D;68546;59.142;37.948;2023-12-20T11:55:05;4.94;59.35
79140;HTU21D;68546;59.142;37.948;2023-12-20T11:57:33;4.94;59.37
79140;HTU21D;68546;59.142;37.948;2023-12-20T11:59:59;4.95;59.22
79140;HTU21D;68546;59.142;37.948;2023-12-20T12:02:26;4.95;59.12
79140;HTU21D;68546;59.142;37.948;2023-12-20T12:04:52;4.95;59.03
79140;HTU21D;68546;59.142;37.948;2023-12-20T12:07:19;4.95;59.06
79140;HTU21D;68546;59.142;37.948;2023-12-20T12:09:47;4.94;59.01
79140;HTU21D;68546;59.142;37.948;2023-12-20T12:12:13;4.95;58.88
79140;HTU21D;68546;59.142;37.948;2023-12-20T12:14:40;4.95;58.82
79140;HTU21D;68546;59.142;37.948;2023-12-20T12:17:13;4.95;58.74
79140;HTU21D;68546;59.142;37.948;2023-12-20T12:19:40;4.94;58.75
79140;HTU21D;68546;59.142;37.948;2023-12-20T12:22:12;4.94;58.48
79140;HTU21D;68546;59.142;37.948;2023-12-20T12:24:40;4.94;58.38
79140;HTU21D;68546;59.142;37.948;2023-12-20T12:27:07;4.94;58.47
79140;HTU21D;68546;59.142;37.948;2023-12-20T12:29:34;4.94;58.23
79140;HTU21D;68546;59.142;37.948;2023-12-20T12:32:05;4.95;58.29
79140;HTU21D;68546;59.142;37.948;2023-12-20T12:34:33;4.94;57.96
79140;HTU21D;68546;59.142;37.948;2023-12-20T12:37:00;4.94;57.91
79140;HTU21D;68546;59.142;37.948;2023-12-20T12:39:27;4.94;57.94
79140;HTU21D;68546;59.142;37.948;2023-12-20T12:41:53;4.95;57.90
79140;HTU21D;68546;59.142;37.948;2023-12-20T12:44:19;4.93;57.80
79140;HTU21D;68546;59.142;37.948;2023-12-20T12:46:48;4.94;57.67
79140;HTU21D;68546;59.142;37.948;2023-12-20T12:49:17;4.95;57.73
79140;HTU21D;68546;59.142;37.948;2023-12-20T12:51:43;4.94;57.51
79140;HTU21D;68546;59.142;37.948;2023-12-20T12:54:10;4.95;57.55
79140;HTU21D;68546;59.142;37.948;2023-12-20T12:56:39;4.96;57.61
79140;HTU21D;68546;59.142;37.948;2023-12-20T12:59:05;4.96;57.55
79140;HTU21D;68546;59.142;37.948;2023-12-20T13:01:32;4.97;57.55
79140;HTU21D;68546;59.142;37.948;2023-12-20T13:03:58;4.95;57.39
79140;HTU21D;68546;59.142;37.948;2023-12-20T13:06:24;4.96;57.34
79140;HTU21D;68546;59.142;37.948;2023-12-20T13:08:50;4.96;57.40
79140;HTU21D;68546;59.142;37.948;2023-12-20T13:11:17;4.98;57.42
79140;HTU21D;68546;59.142;37.948;2023-12-20T13:13:43;5.00;57.29
79140;HTU21D;68546;59.142;37.948;2023-12-20T13:16:09;4.98;57.21
79140;HTU21D;68546;59.142;37.948;2023-12-20T13:18:35;5.00;57.22
79140;HTU21D;68546;59.142;37.948;2023-12-20T13:21:02;5.00;57.15
79140;HTU21D;68546;59.142;37.948;2023-12-20T13:23:28;5.00;57.12
79140;HTU21D;68546;59.142;37.948;2023-12-20T13:25:54;5.00;57.15
79140;HTU21D;68546;59.142;37.948;2023-12-20T13:28:21;5.00;57.25
79140;HTU21D;68546;59.142;37.948;2023-12-20T13:30:47;5.00;57.13
79140;HTU21D;68546;59.142;37.948;2023-12-20T13:33:13;5.01;57.22
79140;HTU21D;68546;59.142;37.948;2023-12-20T13:35:40;5.02;57.22
79140;HTU21D;68546;59.142;37.948;2023-12-20T13:38:06;5.02;57.32
79140;HTU21D;68546;59.142;37.948;2023-12-20T13:40:33;5.03;56.97
79140;HTU21D;68546;59.142;37.948;2023-12-20T13:42:59;5.02;56.98
79140;HTU21D;68546;59.142;37.948;2023-12-20T13:45:26;5.02;56.97
79140;HTU21D;68546;59.142;37.948;2023-12-20T13:47:58;5.04;56.98
79140;HTU21D;68546;59.142;37.948;2023-12-20T13:50:24;5.03;57.00
79140;HTU21D;68546;59.142;37.948;2023-12-20T13:52:52;5.05;56.90
79140;HTU21D;68546;59.142;37.948;2023-12-20T13:55:18;5.04;56.90
79140;HTU21D;68546;59.142;37.948;2023-12-20T13:57:48;5.03;56.55
79140;HTU21D;68546;59.142;37.948;2023-12-20T14:00:14;5.03;56.69
79140;HTU21D;68546;59.142;37.948;2023-12-20T14:02:41;5.04;56.58
79140;HTU21D;68546;59.142;37.948;2023-12-20T14:05:11;5.04;56.64
79140;HTU21D;68546;59.142;37.948;2023-12-20T14:07:37;5.05;56.66
79140;HTU21D;68546;59.142;37.948;2023-12-20T14:10:04;5.05;56.68
79140;HTU21D;68546;59.142;37.948;2023-12-20T14:12:31;5.07;56.66
79140;HTU21D;68546;59.142;37.948;2023-12-20T14:15:02;5.07;56.63
79140;HTU21D;68546;59.142;37.948;2023-12-20T14:17:28;5.07;56.48
79140;HTU21D;68546;59.142;37.948;2023-12-20T14:19:55;5.07;56.28
79140;HTU21D;68546;59.142;37.948;2023-12-20T14:22:21;5.05;56.30
79140;HTU21D;68546;59.142;37.948;2023-12-20T14:24:47;5.07;56.02
79140;HTU21D;68546;59.142;37.948;2023-12-20T14:27:14;5.06;55.97
79140;HTU21D;68546;59.142;37.948;2023-12-20T14:29:40;5.05;56.07
79140;HTU21D;68546;59.142;37.948;2023-12-20T14:32:07;5.03;55.94
79140;HTU21D;68546;59.142;37.948;2023-12-20T14:34:33;5.02;55.88
79140;HTU21D;68546;59.142;37.948;2023-12-20T14:36:59;5.02;56.10
79140;HTU21D;68546;59.142;37.948;2023-12-20T14:39:26;5.02;56.02
79140;HTU21D;68546;59.142;37.948;2023-12-20T14:41:52;5.00;55.60
79140;HTU21D;68546;59.142;37.948;2023-12-20T14:44:18;5.00;55.39
79140;HTU21D;68546;59.142;37.948;2023-12-20T14:46:45;4.97;55.38
79140;HTU21D;68546;59.142;37.948;2023-12-20T14:49:11;4.98;55.50
79140;HTU21D;68546;59.142;37.948;2023-12-20T14:51:37;4.98;55.31
79140;HTU21D;68546;59.142;37.948;2023-12-20T14:54:03;4.97;55.10
79140;HTU21D;68546;59.142;37.948;2023-12-20T14:56:30;4.96;55.20
79140;HTU21D;68546;59.142;37.948;2023-12-20T14:58:56;4.94;55.27
79140;HTU21D;68546;59.142;37.948;2023-12-20T15:01:22;4.95;55.20
79140;HTU21D;68546;59.142;37.948;2023-12-20T15:03:49;4.93;55.26
79140;HTU21D;68546;59.142;37.948;2023-12-20T15:06:16;4.93;55.13
79140;HTU21D;68546;59.142;37.948;2023-12-20T15:08:42;4.92;55.23
79140;HTU21D;68546;59.142;37.948;2023-12-20T15:11:08;4.92;55.36
79140;HTU21D;68546;59.142;37.948;2023-12-20T15:13:34;4.91;55.01
79140;HTU21D;68546;59.142;37.948;2023-12-20T15:16:01;4.90;55.16
79140;HTU21D;68546;59.142;37.948;2023-12-20T15:18:27;4.89;55.23
79140;HTU21D;68546;59.142;37.948;2023-12-20T15:20:53;4.89;55.27
79140;HTU21D;68546;59.142;37.948;2023-12-20T15:23:20;4.88;54.76
79140;HTU21D;68546;59.142;37.948;2023-12-20T15:25:47;4.87;55.04